sensor_id;sensor_type;location;lat;lon;timestamp;pressure;altitude;pressure_sealevel;temperature;humidity
28911;BME280;16028;42.642;23.310;2022-09-12T00:01:36;93829.22;;;15.64;93.76
28911;BME280;16028;42.642;23.310;2022-09-12T00:04:03;93816.47;;;15.61;94.38
28911;BME280;16028;42.642;23.310;2022-09-12T00:06:31;93825.69;;;15.57;93.74
28911;BME280;16028;42.642;23.310;2022-09-12T00:09:00;93829.06;;;15.66;92.66
28911;BME280;16028;42.642;23.310;2022-09-12T00:11:27;93823.97;;;15.64;91.72
28911;BME280;16028;42.642;23.310;2022-09-12T00:13:55;93835.28;;;15.65;90.28
28911;BME280;16028;42.642;23.310;2022-09-12T00:16:23;93837.44;;;15.61;89.91
28911;BME280;16028;42.642;23.310;2022-09-12T00:18:52;93839.38;;;15.53;89.99
28911;BME280;16028;42.642;23.310;2022-09-12T00:21:19;93846.66;;;15.57;89.56
28911;BME280;16028;42.642;23.310;2022-09-12T00:23:47;93845.69;;;15.58;88.84
28911;BME280;16028;42.642;23.310;2022-09-12T00:26:18;93843.06;;;15.58;88.13
28911;BME280;16028;42.642;23.310;2022-09-12T00:28:50;93848.22;;;15.52;89.06
28911;BME280;16028;42.642;23.310;2022-09-12T00:31:19;93845.88;;;15.57;88.75
28911;BME280;16028;42.642;23.310;2022-09-12T00:33:46;93842.25;;;15.58;88.44
28911;BME280;16028;42.642;23.310;2022-09-12T02:09:50;93818.31;;;14.94;86.92
28911;BME280;16028;42.642;23.310;2022-09-12T02:12:23;93817.44;;;15.02;85.02
28911;BME280;16028;42.642;23.310;2022-09-12T02:14:55;93817.34;;;15.10;84.53
28911;BME280;16028;42.642;23.310;2022-09-12T02:17:24;93824.94;;;15.05;84.50
28911;BME280;16028;42.642;23.310;2022-09-12T02:19:55;93822.84;;;15.00;85.42
28911;BME280;16028;42.642;23.310;2022-09-12T02:22:26;93819.72;;;15.05;84.72
28911;BME280;16028;42.642;23.310;2022-09-12T02:24:58;93818.31;;;14.94;85.33
28911;BME280;16028;42.642;23.310;2022-09-12T02:27:27;93824.75;;;14.92;85.27
28911;BME280;16028;42.642;23.310;2022-09-12T02:29:55;93824.22;;;14.96;84.79
28911;BME280;16028;42.642;23.310;2022-09-12T02:32:28;93827.63;;;14.97;84.31
28911;BME280;16028;42.642;23.310;2022-09-12T02:35:00;93822.59;;;14.95;84.13
28911;BME280;16028;42.642;23.310;2022-09-12T02:37:32;93827.34;;;14.92;84.46
28911;BME280;16028;42.642;23.310;2022-09-12T02:40:06;93829.81;;;14.93;84.31
28911;BME280;16028;42.642;23.310;2022-09-12T02:42:34;93818.69;;;14.91;84.37
28911;BME280;16028;42.642;23.310;2022-09-12T02:45:01;93824.56;;;14.93;84.21
28911;BME280;16028;42.642;23.310;2022-09-12T02:47:35;93827.44;;;14.83;85.06
28911;BME280;16028;42.642;23.310;2022-09-12T02:50:05;93831.22;;;14.81;86.22
28911;BME280;16028;42.642;23.310;2022-09-12T02:52:33;93825.09;;;14.89;85.81
28911;BME280;16028;42.642;23.310;2022-09-12T02:55:01;93820.94;;;14.94;85.92
28911;BME280;16028;42.642;23.310;2022-09-12T02:57:30;93821.66;;;14.88;86.09
28911;BME280;16028;42.642;23.310;2022-09-12T02:59:59;93822.63;;;14.87;86.57
28911;BME280;16028;42.642;23.310;2022-09-12T03:02:31;93822.53;;;14.80;87.28
28911;BME280;16028;42.642;23.310;2022-09-12T03:05:17;93827.88;;;14.87;86.57
28911;BME280;16028;42.642;23.310;2022-09-12T03:08:05;93832.69;;;14.83;86.98
28911;BME280;16028;42.642;23.310;2022-09-12T03:10:44;93840.88;;;14.80;87.44
28911;BME280;16028;42.642;23.310;2022-09-12T03:13:22;93839.88;;;14.81;87.26
28911;BME280;16028;42.642;23.310;2022-09-12T03:16:01;93846.56;;;14.84;87.25
28911;BME280;16028;42.642;23.310;2022-09-12T03:18:39;93842.50;;;14.81;87.33
28911;BME280;16028;42.642;23.310;2022-09-12T03:21:11;93839.88;;;14.81;87.77
28911;BME280;16028;42.642;23.310;2022-09-12T03:23:45;93837.09;;;14.83;87.50
28911;BME280;16028;42.642;23.310;2022-09-12T03:26:16;93837.56;;;14.87;87.47
28911;BME280;16028;42.642;23.310;2022-09-12T03:28:47;93846.28;;;14.79;88.03
28911;BME280;16028;42.642;23.310;2022-09-12T03:31:17;93843.16;;;14.83;88.22
28911;BME280;16028;42.642;23.310;2022-09-12T03:33:44;93834.66;;;14.81;88.34
28911;BME280;16028;42.642;23.310;2022-09-12T03:36:15;93833.94;;;14.88;87.63
28911;BME280;16028;42.642;23.310;2022-09-12T03:38:44;93835.63;;;14.80;87.30
28911;BME280;16028;42.642;23.310;2022-09-12T03:41:11;93833.00;;;14.80;87.31
28911;BME280;16028;42.642;23.310;2022-09-12T03:43:38;93835.34;;;14.75;87.64
28911;BME280;16028;42.642;23.310;2022-09-12T03:46:06;93839.97;;;14.73;87.99
28911;BME280;16028;42.642;23.310;2022-09-12T03:48:33;93833.38;;;14.77;87.54
28911;BME280;16028;42.642;23.310;2022-09-12T03:51:00;93841.06;;;14.79;87.67
28911;BME280;16028;42.642;23.310;2022-09-12T03:53:28;93837.81;;;14.77;87.86
28911;BME280;16028;42.642;23.310;2022-09-12T03:55:54;93840.78;;;14.74;87.92
28911;BME280;16028;42.642;23.310;2022-09-12T03:58:21;93838.91;;;14.82;87.42
28911;BME280;16028;42.642;23.310;2022-09-12T04:00:48;93836.75;;;14.86;87.36
28911;BME280;16028;42.642;23.310;2022-09-12T04:03:16;93842.16;;;14.84;87.57
28911;BME280;16028;42.642;23.310;2022-09-12T04:05:44;93837.94;;;14.83;87.08
28911;BME280;16028;42.642;23.310;2022-09-12T04:08:11;93835.00;;;14.78;88.02
28911;BME280;16028;42.642;23.310;2022-09-12T04:10:38;93840.63;;;14.90;87.22
28911;BME280;16028;42.642;23.310;2022-09-12T04:13:05;93840.72;;;14.82;87.24
28911;BME280;16028;42.642;23.310;2022-09-12T04:15:31;93854.06;;;14.87;87.61
28911;BME280;16028;42.642;23.310;2022-09-12T04:17:58;93853.63;;;14.83;87.56
28911;BME280;16028;42.642;23.310;2022-09-12T04:20:26;93858.06;;;14.83;87.30
28911;BME280;16028;42.642;23.310;2022-09-12T04:22:53;93854.31;;;14.77;87.50
28911;BME280;16028;42.642;23.310;2022-09-12T04:25:20;93853.97;;;14.80;87.71
28911;BME280;16028;42.642;23.310;2022-09-12T04:27:48;93848.47;;;14.90;87.13
28911;BME280;16028;42.642;23.310;2022-09-12T04:30:15;93860.59;;;14.91;87.42
28911;BME280;16028;42.642;23.310;2022-09-12T04:32:41;93858.16;;;14.90;87.64
28911;BME280;16028;42.642;23.310;2022-09-12T04:35:08;93861.41;;;14.92;87.83
28911;BME280;16028;42.642;23.310;2022-09-12T04:37:37;93859.41;;;14.94;87.70
28911;BME280;16028;42.642;23.310;2022-09-12T04:40:05;93868.75;;;14.96;88.38
28911;BME280;16028;42.642;23.310;2022-09-12T04:42:32;93863.31;;;14.98;88.55
28911;BME280;16028;42.642;23.310;2022-09-12T04:44:58;93865.88;;;15.06;88.25
28911;BME280;16028;42.642;23.310;2022-09-12T04:47:25;93858.28;;;15.11;87.58
28911;BME280;16028;42.642;23.310;2022-09-12T04:49:52;93868.25;;;15.15;87.52
28911;BME280;16028;42.642;23.310;2022-09-12T04:52:19;93872.31;;;15.18;88.00
28911;BME280;16028;42.642;23.310;2022-09-12T04:54:47;93879.25;;;15.25;87.01
28911;BME280;16028;42.642;23.310;2022-09-12T04:57:14;93870.88;;;15.30;86.79
28911;BME280;16028;42.642;23.310;2022-09-12T04:59:41;93862.34;;;15.51;86.03
28911;BME280;16028;42.642;23.310;2022-09-12T05:02:07;93872.09;;;15.57;84.19
28911;BME280;16028;42.642;23.310;2022-09-12T05:04:34;93867.03;;;15.55;85.18
28911;BME280;16028;42.642;23.310;2022-09-12T05:07:01;93869.28;;;15.58;85.53
28911;BME280;16028;42.642;23.310;2022-09-12T05:09:28;93859.78;;;15.72;84.64
28911;BME280;16028;42.642;23.310;2022-09-12T05:11:56;93862.13;;;15.81;82.38
28911;BME280;16028;42.642;23.310;2022-09-12T05:14:23;93860.84;;;15.77;83.10
28911;BME280;16028;42.642;23.310;2022-09-12T05:16:50;93859.75;;;15.86;82.43
28911;BME280;16028;42.642;23.310;2022-09-12T05:19:17;93864.38;;;15.84;82.79
28911;BME280;16028;42.642;23.310;2022-09-12T05:21:44;93869.50;;;15.93;82.33
28911;BME280;16028;42.642;23.310;2022-09-12T05:24:10;93868.09;;;15.90;82.54
28911;BME280;16028;42.642;23.310;2022-09-12T05:26:37;93864.28;;;15.93;82.00
28911;BME280;16028;42.642;23.310;2022-09-12T05:29:35;93849.53;;;15.92;81.19
28911;BME280;16028;42.642;23.310;2022-09-12T05:32:02;93864.81;;;16.03;80.72
28911;BME280;16028;42.642;23.310;2022-09-12T05:34:29;93867.63;;;16.01;81.24
28911;BME280;16028;42.642;23.310;2022-09-12T05:36:56;93864.25;;;16.07;80.46
28911;BME280;16028;42.642;23.310;2022-09-12T05:39:25;93864.81;;;16.03;79.53
28911;BME280;16028;42.642;23.310;2022-09-12T05:41:52;93857.75;;;16.03;80.46
28911;BME280;16028;42.642;23.310;2022-09-12T05:44:19;93860.44;;;16.10;79.25
28911;BME280;16028;42.642;23.310;2022-09-12T05:46:47;93859.56;;;16.03;80.63
28911;BME280;16028;42.642;23.310;2022-09-12T05:49:15;93869.97;;;16.11;79.48
28911;BME280;16028;42.642;23.310;2022-09-12T05:51:43;93855.28;;;16.16;78.65
28911;BME280;16028;42.642;23.310;2022-09-12T05:54:12;93852.81;;;16.15;78.84
28911;BME280;16028;42.642;23.310;2022-09-12T05:56:41;93844.34;;;16.13;80.08
28911;BME280;16028;42.642;23.310;2022-09-12T05:59:10;93850.53;;;16.26;79.24
28911;BME280;16028;42.642;23.310;2022-09-12T06:01:37;93849.06;;;16.38;77.64
28911;BME280;16028;42.642;23.310;2022-09-12T06:04:06;93845.00;;;16.36;78.57
28911;BME280;16028;42.642;23.310;2022-09-12T06:06:37;93844.50;;;16.47;78.10
28911;BME280;16028;42.642;23.310;2022-09-12T06:09:06;93837.97;;;16.58;77.70
28911;BME280;16028;42.642;23.310;2022-09-12T06:11:34;93836.69;;;16.54;77.92
28911;BME280;16028;42.642;23.310;2022-09-12T06:14:02;93836.06;;;16.73;76.03
28911;BME280;16028;42.642;23.310;2022-09-12T06:16:31;93838.84;;;16.65;76.76
28911;BME280;16028;42.642;23.310;2022-09-12T06:18:59;93843.88;;;16.66;76.26
28911;BME280;16028;42.642;23.310;2022-09-12T06:21:28;93828.72;;;16.62;76.68
28911;BME280;16028;42.642;23.310;2022-09-12T06:23:57;93830.69;;;16.60;75.44
28911;BME280;16028;42.642;23.310;2022-09-12T06:26:24;93847.09;;;16.62;75.08
28911;BME280;16028;42.642;23.310;2022-09-12T06:28:52;93851.16;;;16.64;75.54
28911;BME280;16028;42.642;23.310;2022-09-12T06:31:21;93865.03;;;16.58;75.12
28911;BME280;16028;42.642;23.310;2022-09-12T06:33:50;93863.50;;;16.49;75.46
28911;BME280;16028;42.642;23.310;2022-09-12T06:36:19;93862.88;;;16.47;76.36
28911;BME280;16028;42.642;23.310;2022-09-12T06:38:52;93858.38;;;16.41;76.59
28911;BME280;16028;42.642;23.310;2022-09-12T06:41:20;93868.88;;;16.56;75.93
28911;BME280;16028;42.642;23.310;2022-09-12T06:43:47;93869.00;;;16.54;75.53
28911;BME280;16028;42.642;23.310;2022-09-12T06:46:14;93869.66;;;16.56;76.20
28911;BME280;16028;42.642;23.310;2022-09-12T06:48:41;93870.00;;;16.53;76.86
28911;BME280;16028;42.642;23.310;2022-09-12T06:51:10;93870.09;;;16.60;78.37
28911;BME280;16028;42.642;23.310;2022-09-12T06:53:38;93881.75;;;16.72;78.15
28911;BME280;16028;42.642;23.310;2022-09-12T06:56:09;93876.50;;;16.72;79.73
28911;BME280;16028;42.642;23.310;2022-09-12T06:58:36;93895.13;;;16.77;79.80
28911;BME280;16028;42.642;23.310;2022-09-12T07:01:07;93881.06;;;16.84;78.78
28911;BME280;16028;42.642;23.310;2022-09-12T07:03:34;93882.78;;;16.99;77.46
28911;BME280;16028;42.642;23.310;2022-09-12T07:06:02;93887.44;;;16.97;78.48
28911;BME280;16028;42.642;23.310;2022-09-12T07:08:29;93883.44;;;17.01;78.36
28911;BME280;16028;42.642;23.310;2022-09-12T07:10:56;93884.91;;;17.10;77.99
28911;BME280;16028;42.642;23.310;2022-09-12T07:13:26;93883.66;;;17.06;78.67
28911;BME280;16028;42.642;23.310;2022-09-12T07:15:53;93896.81;;;17.06;78.00
28911;BME280;16028;42.642;23.310;2022-09-12T07:18:20;93897.34;;;17.01;76.26
28911;BME280;16028;42.642;23.310;2022-09-12T07:20:48;93892.25;;;16.93;76.96
28911;BME280;16028;42.642;23.310;2022-09-12T07:23:14;93903.44;;;17.02;75.45
28911;BME280;16028;42.642;23.310;2022-09-12T07:25:41;93896.66;;;17.14;75.08
28911;BME280;16028;42.642;23.310;2022-09-12T07:28:07;93887.38;;;17.18;75.94
28911;BME280;16028;42.642;23.310;2022-09-12T07:30:36;93891.13;;;17.30;75.66
28911;BME280;16028;42.642;23.310;2022-09-12T07:33:03;93892.75;;;17.31;73.74
28911;BME280;16028;42.642;23.310;2022-09-12T07:35:32;93896.19;;;17.31;73.83
28911;BME280;16028;42.642;23.310;2022-09-12T07:37:59;93899.78;;;17.24;75.88
28911;BME280;16028;42.642;23.310;2022-09-12T07:40:25;93888.34;;;17.38;73.61
28911;BME280;16028;42.642;23.310;2022-09-12T07:42:52;93892.81;;;17.37;71.93
28911;BME280;16028;42.642;23.310;2022-09-12T07:45:19;93895.94;;;17.26;72.76
28911;BME280;16028;42.642;23.310;2022-09-12T07:47:47;93885.41;;;17.26;72.51
28911;BME280;16028;42.642;23.310;2022-09-12T07:50:14;93890.88;;;17.25;72.72
28911;BME280;16028;42.642;23.310;2022-09-12T07:52:41;93894.94;;;17.27;73.46
28911;BME280;16028;42.642;23.310;2022-09-12T07:55:08;93872.59;;;17.38;71.90
28911;BME280;16028;42.642;23.310;2022-09-12T07:57:35;93890.31;;;17.29;73.38
28911;BME280;16028;42.642;23.310;2022-09-12T08:00:03;93884.53;;;17.40;72.92
28911;BME280;16028;42.642;23.310;2022-09-12T08:02:32;93888.19;;;17.46;72.82
28911;BME280;16028;42.642;23.310;2022-09-12T08:05:01;93890.88;;;17.53;71.16
28911;BME280;16028;42.642;23.310;2022-09-12T08:07:30;93888.84;;;17.48;70.89
28911;BME280;16028;42.642;23.310;2022-09-12T08:09:58;93884.56;;;17.47;71.05
28911;BME280;16028;42.642;23.310;2022-09-12T08:12:26;93880.56;;;17.51;71.60
28911;BME280;16028;42.642;23.310;2022-09-12T08:14:53;93893.16;;;17.56;71.16
28911;BME280;16028;42.642;23.310;2022-09-12T08:17:20;93897.69;;;17.68;69.72
28911;BME280;16028;42.642;23.310;2022-09-12T08:19:47;93892.75;;;17.59;70.87
28911;BME280;16028;42.642;23.310;2022-09-12T08:22:16;93887.38;;;17.67;69.75
28911;BME280;16028;42.642;23.310;2022-09-12T08:24:46;93894.13;;;17.82;69.41
28911;BME280;16028;42.642;23.310;2022-09-12T08:27:14;93879.63;;;17.93;68.53
28911;BME280;16028;42.642;23.310;2022-09-12T08:29:41;93889.94;;;17.94;68.88
28911;BME280;16028;42.642;23.310;2022-09-12T08:32:08;93878.63;;;18.01;68.81
28911;BME280;16028;42.642;23.310;2022-09-12T08:34:36;93886.09;;;17.97;69.31
28911;BME280;16028;42.642;23.310;2022-09-12T08:37:03;93881.28;;;18.07;68.78
28911;BME280;16028;42.642;23.310;2022-09-12T08:39:31;93881.72;;;18.11;69.54
28911;BME280;16028;42.642;23.310;2022-09-12T08:42:00;93883.94;;;18.14;68.19
28911;BME280;16028;42.642;23.310;2022-09-12T08:47:31;93880.53;;;18.20;68.38
28911;BME280;16028;42.642;23.310;2022-09-12T08:50:05;93893.13;;;18.24;69.51
28911;BME280;16028;42.642;23.310;2022-09-12T08:52:42;93884.63;;;18.29;68.14
28911;BME280;16028;42.642;23.310;2022-09-12T08:55:24;93885.84;;;18.33;68.96
28911;BME280;16028;42.642;23.310;2022-09-12T08:57:52;93881.44;;;18.46;66.68
28911;BME280;16028;42.642;23.310;2022-09-12T09:00:20;93885.91;;;18.46;64.85
28911;BME280;16028;42.642;23.310;2022-09-12T09:06:00;93874.75;;;18.44;65.31
28911;BME280;16028;42.642;23.310;2022-09-12T09:08:50;93870.16;;;18.59;64.08
28911;BME280;16028;42.642;23.310;2022-09-12T09:14:27;93869.38;;;18.78;64.31
28911;BME280;16028;42.642;23.310;2022-09-12T09:17:23;93868.16;;;18.81;64.61
28911;BME280;16028;42.642;23.310;2022-09-12T09:19:58;93868.97;;;18.75;63.25
28911;BME280;16028;42.642;23.310;2022-09-12T09:22:34;93861.66;;;18.77;63.44
28911;BME280;16028;42.642;23.310;2022-09-12T09:25:04;93868.75;;;18.76;62.26
28911;BME280;16028;42.642;23.310;2022-09-12T09:27:36;93859.84;;;18.71;62.92
28911;BME280;16028;42.642;23.310;2022-09-12T09:30:12;93860.63;;;18.58;63.05
28911;BME280;16028;42.642;23.310;2022-09-12T09:32:40;93860.63;;;18.58;64.22
28911;BME280;16028;42.642;23.310;2022-09-12T09:35:18;93850.50;;;18.62;65.31
28911;BME280;16028;42.642;23.310;2022-09-12T09:38:00;93845.66;;;18.78;64.28
28911;BME280;16028;42.642;23.310;2022-09-12T09:40:38;93851.34;;;18.82;63.62
28911;BME280;16028;42.642;23.310;2022-09-12T09:43:17;93848.09;;;18.80;64.64
28911;BME280;16028;42.642;23.310;2022-09-12T09:45:47;93844.25;;;18.95;62.44
28911;BME280;16028;42.642;23.310;2022-09-12T09:48:17;93846.09;;;18.95;61.61
28911;BME280;16028;42.642;23.310;2022-09-12T09:50:46;93839.19;;;19.00;60.34
28911;BME280;16028;42.642;23.310;2022-09-12T09:53:28;93830.06;;;18.90;63.73
28911;BME280;16028;42.642;23.310;2022-09-12T09:55:59;93841.00;;;19.07;63.52
28911;BME280;16028;42.642;23.310;2022-09-12T09:58:30;93839.19;;;19.07;63.63
28911;BME280;16028;42.642;23.310;2022-09-12T10:01:01;93838.97;;;19.22;62.63
28911;BME280;16028;42.642;23.310;2022-09-12T10:03:30;93838.16;;;19.21;62.27
28911;BME280;16028;42.642;23.310;2022-09-12T10:05:59;93836.56;;;19.14;62.34
28911;BME280;16028;42.642;23.310;2022-09-12T10:08:27;93837.78;;;19.05;61.51
28911;BME280;16028;42.642;23.310;2022-09-12T10:11:00;93842.22;;;18.97;62.22
28911;BME280;16028;42.642;23.310;2022-09-12T10:13:35;93834.31;;;18.91;62.99
28911;BME280;16028;42.642;23.310;2022-09-12T10:16:02;93838.78;;;18.90;63.62
28911;BME280;16028;42.642;23.310;2022-09-12T10:18:36;93832.28;;;18.99;64.55
28911;BME280;16028;42.642;23.310;2022-09-12T10:21:17;93836.56;;;19.07;63.35
28911;BME280;16028;42.642;23.310;2022-09-12T10:23:45;93831.47;;;19.19;61.26
28911;BME280;16028;42.642;23.310;2022-09-12T10:26:14;93826.41;;;19.11;62.29
28911;BME280;16028;42.642;23.310;2022-09-12T10:28:44;93830.47;;;19.13;63.25
28911;BME280;16028;42.642;23.310;2022-09-12T10:31:15;93831.06;;;19.22;62.25
28911;BME280;16028;42.642;23.310;2022-09-12T10:33:44;93832.88;;;19.28;62.91
28911;BME280;16028;42.642;23.310;2022-09-12T10:36:17;93824.53;;;19.31;62.21
28911;BME280;16028;42.642;23.310;2022-09-12T10:38:48;93832.47;;;19.37;60.90
28911;BME280;16028;42.642;23.310;2022-09-12T10:41:16;93828.41;;;19.48;62.56
28911;BME280;16028;42.642;23.310;2022-09-12T10:43:45;93830.63;;;19.58;59.48
28911;BME280;16028;42.642;23.310;2022-09-12T10:46:28;93831.06;;;19.54;61.41
28911;BME280;16028;42.642;23.310;2022-09-12T10:49:21;93823.53;;;19.58;61.29
28911;BME280;16028;42.642;23.310;2022-09-12T10:51:49;93826.38;;;19.50;62.67
28911;BME280;16028;42.642;23.310;2022-09-12T10:54:20;93824.78;;;19.49;60.60
28911;BME280;16028;42.642;23.310;2022-09-12T10:57:20;93836.75;;;19.51;60.56
28911;BME280;16028;42.642;23.310;2022-09-12T11:00:03;93829.41;;;19.60;58.96
28911;BME280;16028;42.642;23.310;2022-09-12T11:02:47;93827.38;;;19.62;61.70
28911;BME280;16028;42.642;23.310;2022-09-12T11:05:23;93825.28;;;19.84;60.67
28911;BME280;16028;42.642;23.310;2022-09-12T11:07:57;93817.31;;;19.97;60.12
28911;BME280;16028;42.642;23.310;2022-09-12T11:10:36;93822.13;;;20.13;56.05
28911;BME280;16028;42.642;23.310;2022-09-12T11:13:18;93825.31;;;20.35;56.72
28911;BME280;16028;42.642;23.310;2022-09-12T11:16:01;93825.03;;;20.43;55.32
28911;BME280;16028;42.642;23.310;2022-09-12T11:18:45;93822.75;;;20.53;56.84
28911;BME280;16028;42.642;23.310;2022-09-12T11:21:29;93824.19;;;20.49;57.07
28911;BME280;16028;42.642;23.310;2022-09-12T11:24:12;93821.97;;;20.46;55.54
28911;BME280;16028;42.642;23.310;2022-09-12T11:27:04;93822.47;;;20.30;54.99
28911;BME280;16028;42.642;23.310;2022-09-12T11:29:46;93818.84;;;20.18;57.56
28911;BME280;16028;42.642;23.310;2022-09-12T11:32:31;93813.59;;;20.11;57.58
28911;BME280;16028;42.642;23.310;2022-09-12T11:35:07;93826.63;;;20.06;57.81
28911;BME280;16028;42.642;23.310;2022-09-12T11:37:49;93811.59;;;20.06;59.08
28911;BME280;16028;42.642;23.310;2022-09-12T11:40:26;93814.63;;;20.10;59.62
28911;BME280;16028;42.642;23.310;2022-09-12T11:42:59;93812.09;;;20.35;59.52
28911;BME280;16028;42.642;23.310;2022-09-12T11:45:29;93809.25;;;20.30;59.13
28911;BME280;16028;42.642;23.310;2022-09-12T11:48:04;93818.81;;;20.31;59.19
28911;BME280;16028;42.642;23.310;2022-09-12T11:50:33;93823.53;;;20.16;58.52
28911;BME280;16028;42.642;23.310;2022-09-12T11:53:05;93818.13;;;19.97;58.88
28911;BME280;16028;42.642;23.310;2022-09-12T11:55:47;93818.78;;;19.86;57.65
28911;BME280;16028;42.642;23.310;2022-09-12T11:58:17;93810.91;;;19.73;59.97
28911;BME280;16028;42.642;23.310;2022-09-12T12:00:49;93823.78;;;20.01;59.26
28911;BME280;16028;42.642;23.310;2022-09-12T12:03:22;93816.03;;;20.13;59.86
28911;BME280;16028;42.642;23.310;2022-09-12T12:05:55;93819.63;;;20.25;59.18
28911;BME280;16028;42.642;23.310;2022-09-12T12:08:25;93821.16;;;20.45;58.17
28911;BME280;16028;42.642;23.310;2022-09-12T12:10:55;93814.06;;;20.46;58.27
28911;BME280;16028;42.642;23.310;2022-09-12T12:13:28;93803.97;;;20.68;55.87
28911;BME280;16028;42.642;23.310;2022-09-12T12:15:57;93814.94;;;20.65;55.74
28911;BME280;16028;42.642;23.310;2022-09-12T12:18:27;93818.84;;;20.62;55.36
28911;BME280;16028;42.642;23.310;2022-09-12T12:20:56;93817.56;;;20.71;56.02
28911;BME280;16028;42.642;23.310;2022-09-12T12:24:01;93806.75;;;20.48;54.02
28911;BME280;16028;42.642;23.310;2022-09-12T12:26:44;93802.38;;;20.60;56.04
28911;BME280;16028;42.642;23.310;2022-09-12T12:29:42;93794.53;;;20.78;56.82
28911;BME280;16028;42.642;23.310;2022-09-12T12:32:24;93792.38;;;20.93;54.74
28911;BME280;16028;42.642;23.310;2022-09-12T12:38:30;93791.88;;;21.03;53.99
28911;BME280;16028;42.642;23.310;2022-09-12T12:43:43;93792.88;;;21.33;51.54
28911;BME280;16028;42.642;23.310;2022-09-12T12:46:12;93801.78;;;21.39;51.99
28911;BME280;16028;42.642;23.310;2022-09-12T12:51:54;93790.16;;;21.40;52.53
28911;BME280;16028;42.642;23.310;2022-09-12T12:54:50;93794.06;;;21.37;51.08
28911;BME280;16028;42.642;23.310;2022-09-12T13:00:32;93798.16;;;21.08;52.44
28911;BME280;16028;42.642;23.310;2022-09-12T13:03:05;93807.91;;;21.15;52.50
28911;BME280;16028;42.642;23.310;2022-09-12T13:05:45;93808.06;;;21.20;52.24
28911;BME280;16028;42.642;23.310;2022-09-12T13:08:28;93812.00;;;21.10;53.29
28911;BME280;16028;42.642;23.310;2022-09-12T13:11:06;93818.81;;;20.93;53.26
28911;BME280;16028;42.642;23.310;2022-09-12T13:13:39;93788.38;;;20.84;53.94
28911;BME280;16028;42.642;23.310;2022-09-12T13:16:08;93821.88;;;20.90;54.83
28911;BME280;16028;42.642;23.310;2022-09-12T13:18:44;93799.72;;;20.91;53.51
28911;BME280;16028;42.642;23.310;2022-09-12T13:21:16;93802.22;;;20.86;53.50
28911;BME280;16028;42.642;23.310;2022-09-12T13:23:44;93820.19;;;20.71;54.65
28911;BME280;16028;42.642;23.310;2022-09-12T13:26:20;93810.09;;;20.62;55.04
28911;BME280;16028;42.642;23.310;2022-09-12T13:28:48;93808.06;;;20.64;54.92
28911;BME280;16028;42.642;23.310;2022-09-12T13:31:21;93801.22;;;20.49;56.16
28911;BME280;16028;42.642;23.310;2022-09-12T13:33:54;93798.03;;;20.41;56.39
28911;BME280;16028;42.642;23.310;2022-09-12T13:39:25;93794.97;;;19.99;59.00
28911;BME280;16028;42.642;23.310;2022-09-12T13:42:27;93795.84;;;19.87;59.63
28911;BME280;16028;42.642;23.310;2022-09-12T13:45:03;93797.00;;;19.97;58.85
28911;BME280;16028;42.642;23.310;2022-09-12T13:47:35;93781.66;;;19.81;57.62
28911;BME280;16028;42.642;23.310;2022-09-12T13:50:16;93806.84;;;19.77;57.59
28911;BME280;16028;42.642;23.310;2022-09-12T13:52:48;93802.78;;;19.75;57.73
28911;BME280;16028;42.642;23.310;2022-09-12T13:55:28;93792.66;;;19.65;56.41
28911;BME280;16028;42.642;23.310;2022-09-12T13:58:00;93805.25;;;19.63;57.30
28911;BME280;16028;42.642;23.310;2022-09-12T14:00:32;93806.88;;;19.58;58.51
28911;BME280;16028;42.642;23.310;2022-09-12T14:03:00;93794.88;;;19.68;57.23
28911;BME280;16028;42.642;23.310;2022-09-12T14:05:54;93799.75;;;19.71;55.58
28911;BME280;16028;42.642;23.310;2022-09-12T14:08:22;93803.00;;;19.60;55.32
28911;BME280;16028;42.642;23.310;2022-09-12T14:10:50;93802.06;;;19.41;55.43
28911;BME280;16028;42.642;23.310;2022-09-12T14:13:21;93799.63;;;19.40;55.72
28911;BME280;16028;42.642;23.310;2022-09-12T14:15:50;93792.47;;;19.34;55.94
28911;BME280;16028;42.642;23.310;2022-09-12T14:18:23;93780.13;;;19.41;55.02
28911;BME280;16028;42.642;23.310;2022-09-12T14:20:51;93793.94;;;19.43;55.65
28911;BME280;16028;42.642;23.310;2022-09-12T14:23:25;93791.72;;;19.40;55.23
28911;BME280;16028;42.642;23.310;2022-09-12T14:25:53;93797.59;;;19.42;55.82
28911;BME280;16028;42.642;23.310;2022-09-12T14:28:22;93790.25;;;19.44;55.74
28911;BME280;16028;42.642;23.310;2022-09-12T14:31:00;93794.09;;;19.61;55.58
28911;BME280;16028;42.642;23.310;2022-09-12T14:33:28;93798.34;;;19.69;54.03
28911;BME280;16028;42.642;23.310;2022-09-12T14:36:09;93797.16;;;19.58;55.86
28911;BME280;16028;42.642;23.310;2022-09-12T14:38:40;93799.13;;;19.69;56.26
28911;BME280;16028;42.642;23.310;2022-09-12T14:41:09;93800.78;;;19.64;55.43
28911;BME280;16028;42.642;23.310;2022-09-12T14:43:41;93798.97;;;19.58;55.63
28911;BME280;16028;42.642;23.310;2022-09-12T14:46:15;93804.22;;;19.71;55.63
28911;BME280;16028;42.642;23.310;2022-09-12T14:48:48;93804.22;;;19.71;55.64
28911;BME280;16028;42.642;23.310;2022-09-12T14:51:20;93799.94;;;19.70;56.86
28911;BME280;16028;42.642;23.310;2022-09-12T14:53:48;93805.03;;;19.65;57.60
28911;BME280;16028;42.642;23.310;2022-09-12T14:56:15;93796.31;;;19.64;58.30
28911;BME280;16028;42.642;23.310;2022-09-12T14:58:44;93809.09;;;19.67;57.41
28911;BME280;16028;42.642;23.310;2022-09-12T15:01:24;93810.13;;;19.53;58.01
28911;BME280;16028;42.642;23.310;2022-09-12T15:03:53;93805.28;;;19.50;56.99
28911;BME280;16028;42.642;23.310;2022-09-12T15:06:24;93803.25;;;19.45;56.99
28911;BME280;16028;42.642;23.310;2022-09-12T15:08:53;93808.53;;;19.32;58.02
28911;BME280;16028;42.642;23.310;2022-09-12T15:11:20;93811.00;;;19.21;58.84